Time;durP1;ratioP1;P1;durP2;ratioP2;P2;SDS_P1;SDS_P2;PMS_P1;PMS_P2;Temp;Humidity;BMP_temperature;BMP_pressure;BME280_temperature;BME280_humidity;BME280_pressure;Samples;Min_cycle;Max_cycle;Signal;HPM_P1;HPM_P2
2021/08/22 00:00:57;;;;;;;7.60;7.20;;;18.80;99.90;;;;;;5030476;28;20480;-65
2021/08/22 00:03:24;;;;;;;6.60;6.30;;;18.70;99.90;;;;;;5030502;28;20488;-64
2021/08/22 00:05:51;;;;;;;7.30;7.00;;;18.70;99.90;;;;;;5030761;28;20452;-65
2021/08/22 00:08:18;;;;;;;7.20;6.70;;;18.70;99.90;;;;;;5034440;28;20448;-65
2021/08/22 00:10:46;;;;;;;6.83;6.53;;;18.70;99.90;;;;;;5034316;28;20470;-64
2021/08/22 00:13:12;;;;;;;6.80;6.50;;;18.70;99.90;;;;;;5034086;28;20445;-64
2021/08/22 00:15:39;;;;;;;6.80;6.50;;;18.70;99.90;;;;;;5035862;28;20452;-64
2021/08/22 00:18:06;;;;;;;7.47;7.00;;;18.70;99.90;;;;;;5034753;28;20814;-65
2021/08/22 00:20:33;;;;;;;11.30;8.40;;;18.70;99.90;;;;;;5034172;28;20465;-65
2021/08/22 00:22:59;;;;;;;6.90;6.20;;;18.60;99.90;;;;;;5033912;28;20488;-65
2021/08/22 00:25:27;;;;;;;6.50;6.20;;;18.60;99.90;;;;;;5033970;28;20449;-66
2021/08/22 00:27:55;;;;;;;6.40;6.10;;;18.50;99.90;;;;;;5033967;28;20819;-65
2021/08/22 00:30:22;;;;;;;6.67;6.27;;;18.40;99.90;;;;;;5033998;28;20460;-66
2021/08/22 00:32:48;;;;;;;6.90;6.50;;;18.40;99.90;;;;;;5033817;28;20478;-66
2021/08/22 00:35:15;;;;;;;6.03;5.73;;;18.30;99.90;;;;;;5033880;28;20449;-66
2021/08/22 00:37:42;;;;;;;6.60;6.20;;;18.20;99.90;;;;;;5033661;28;20988;-66
2021/08/22 00:40:10;;;;;;;7.00;6.60;;;18.20;99.90;;;;;;5033678;28;20449;-66
2021/08/22 00:42:37;;;;;;;6.47;6.03;;;18.10;99.90;;;;;;5033567;28;20452;-67
2021/08/22 00:45:08;;;;;;;5.90;5.60;;;18.00;99.90;;;;;;5033623;28;20480;-65
2021/08/22 00:47:37;;;;;;;6.67;6.17;;;18.00;99.90;;;;;;5033635;28;20449;-66
2021/08/22 00:50:05;;;;;;;6.90;6.50;;;17.90;99.90;;;;;;5033385;28;20803;-66
2021/08/22 00:52:33;;;;;;;6.40;6.10;;;17.80;99.90;;;;;;5033177;28;20460;-66
2021/08/22 00:55:03;;;;;;;6.50;6.00;;;17.80;99.90;;;;;;5033521;28;20437;-66
2021/08/22 00:57:29;;;;;;;6.43;6.00;;;17.80;99.90;;;;;;5033570;28;20444;-66
2021/08/22 00:59:57;;;;;;;6.67;6.10;;;17.70;99.90;;;;;;5033509;28;20475;-66
2021/08/22 01:02:29;;;;;;;6.20;5.60;;;17.70;99.90;;;;;;5032885;28;20833;-67
2021/08/22 01:05:01;;;;;;;6.00;5.60;;;17.70;99.90;;;;;;5033265;28;20488;-66
2021/08/22 01:07:32;;;;;;;5.97;5.53;;;17.70;99.90;;;;;;5033309;28;20445;-67
2021/08/22 01:09:59;;;;;;;6.60;6.10;;;17.60;99.90;;;;;;5033141;28;20476;-66
2021/08/22 01:12:30;;;;;;;5.87;5.47;;;17.60;99.90;;;;;;5033034;28;20465;-66
2021/08/22 01:15:01;;;;;;;5.60;5.10;;;17.50;99.90;;;;;;5033340;28;20841;-67
2021/08/22 01:17:32;;;;;;;5.90;5.60;;;17.50;99.90;;;;;;5033050;28;20460;-65
2021/08/22 01:20:06;;;;;;;6.10;5.70;;;17.40;99.90;;;;;;5033042;28;20449;-66
2021/08/22 01:22:35;;;;;;;6.57;6.07;;;17.40;99.90;;;;;;5032870;28;20445;-66
2021/08/22 01:25:04;;;;;;;6.27;5.77;;;17.30;99.90;;;;;;5033128;28;20794;-67
2021/08/22 01:27:31;;;;;;;6.53;5.73;;;17.30;99.90;;;;;;5032997;28;20834;-67
2021/08/22 01:30:07;;;;;;;5.70;5.40;;;17.30;99.90;;;;;;5032772;28;20440;-65
2021/08/22 01:32:37;;;;;;;5.77;5.27;;;17.20;99.90;;;;;;5032584;28;20445;-66
2021/08/22 01:35:05;;;;;;;5.40;5.10;;;17.20;99.90;;;;;;5032801;28;20437;-65
2021/08/22 01:37:32;;;;;;;5.90;5.40;;;17.20;99.90;;;;;;5032755;28;20441;-66
2021/08/22 01:40:00;;;;;;;5.80;5.30;;;17.20;99.90;;;;;;5032838;28;20448;-66
2021/08/22 01:42:28;;;;;;;5.90;5.50;;;17.10;99.90;;;;;;5032256;28;20503;-65
2021/08/22 01:44:55;;;;;;;5.67;5.20;;;17.10;99.90;;;;;;5032116;28;20484;-66
2021/08/22 01:47:23;;;;;;;5.03;4.67;;;17.10;99.90;;;;;;5032740;28;20449;-65
2021/08/22 01:49:52;;;;;;;6.23;5.73;;;17.10;99.90;;;;;;5032470;28;20448;-65
2021/08/22 01:52:19;;;;;;;5.47;5.07;;;17.10;99.90;;;;;;5032289;28;20476;-66
2021/08/22 01:54:46;;;;;;;6.10;5.70;;;17.10;99.90;;;;;;5032476;28;20444;-66
2021/08/22 01:57:12;;;;;;;6.27;5.73;;;17.10;99.90;;;;;;5032032;28;20453;-65
2021/08/22 01:59:40;;;;;;;7.13;5.00;;;17.00;99.90;;;;;;5032506;28;20452;-66
2021/08/22 02:02:06;;;;;;;5.67;5.17;;;17.00;99.90;;;;;;5031989;28;20480;-66
2021/08/22 02:04:41;;;;;;;5.90;5.27;;;16.90;99.90;;;;;;5032359;28;20686;-66
2021/08/22 02:07:13;;;;;;;5.27;4.77;;;16.90;99.90;;;;;;5031974;28;20481;-66
2021/08/22 02:09:49;;;;;;;4.93;4.50;;;16.90;99.90;;;;;;5032226;28;20452;-65
2021/08/22 02:12:18;;;;;;;4.90;4.50;;;16.90;99.90;;;;;;5031821;28;20962;-64
2021/08/22 02:14:53;;;;;;;4.93;4.53;;;16.90;99.90;;;;;;5031976;28;20448;-64
2021/08/22 02:17:22;;;;;;;5.23;4.80;;;16.90;99.90;;;;;;5031762;28;20968;-64
2021/08/22 02:19:52;;;;;;;5.80;5.30;;;16.90;99.90;;;;;;5031915;28;20958;-64
2021/08/22 02:22:20;;;;;;;6.80;6.20;;;16.80;99.90;;;;;;5031666;28;20903;-64
2021/08/22 02:24:47;;;;;;;9.23;6.53;;;16.80;99.90;;;;;;5031541;28;20481;-64
2021/08/22 02:27:14;;;;;;;8.37;7.07;;;16.90;99.90;;;;;;5031777;28;20452;-64
2021/08/22 02:29:49;;;;;;;10.33;9.43;;;16.90;99.90;;;;;;5031193;28;20946;-63
2021/08/22 02:32:16;;;;;;;8.80;8.00;;;16.90;99.90;;;;;;5031513;28;20467;-63
2021/08/22 02:34:43;;;;;;;14.43;9.07;;;17.00;99.90;;;;;;5031466;28;20453;-64
2021/08/22 02:37:10;;;;;;;9.30;8.40;;;17.10;99.90;;;;;;5031684;28;20461;-64
2021/08/22 02:39:38;;;;;;;16.73;9.57;;;17.10;99.90;;;;;;5031832;28;20444;-64
2021/08/22 02:42:06;;;;;;;11.63;10.40;;;17.20;99.90;;;;;;5031325;28;20548;-64
2021/08/22 02:44:33;;;;;;;12.80;11.60;;;17.30;99.90;;;;;;5031585;28;20477;-64
2021/08/22 02:46:59;;;;;;;12.23;10.53;;;17.40;99.90;;;;;;5031478;28;20961;-65
2021/08/22 02:49:26;;;;;;;11.47;10.30;;;17.50;99.90;;;;;;5031698;28;20472;-64
2021/08/22 02:51:53;;;;;;;14.03;11.93;;;17.50;99.90;;;;;;5031196;28;20544;-64
2021/08/22 02:54:19;;;;;;;13.50;12.20;;;17.60;99.90;;;;;;5031473;28;20445;-64
2021/08/22 02:56:47;;;;;;;14.70;12.20;;;17.70;99.90;;;;;;5031649;28;20789;-64
2021/08/22 02:59:14;;;;;;;14.03;12.60;;;17.70;99.90;;;;;;5031361;28;20461;-64
2021/08/22 03:01:41;;;;;;;14.67;13.17;;;17.80;99.90;;;;;;5031008;28;20480;-64
2021/08/22 03:04:08;;;;;;;15.63;14.03;;;17.90;99.90;;;;;;5031319;28;20477;-64
2021/08/22 03:06:34;;;;;;;17.40;15.40;;;17.90;99.90;;;;;;5031304;28;20452;-64
2021/08/22 03:09:02;;;;;;;17.30;15.53;;;18.00;99.90;;;;;;5031290;28;20453;-63
2021/08/22 03:11:29;;;;;;;17.20;15.60;;;18.00;99.90;;;;;;5030869;28;20496;-64
2021/08/22 03:13:57;;;;;;;16.10;14.70;;;18.10;99.90;;;;;;5031216;28;20438;-64
2021/08/22 03:16:24;;;;;;;16.27;14.80;;;18.10;99.90;;;;;;5031445;28;20449;-64
2021/08/22 03:18:51;;;;;;;19.13;14.93;;;18.10;99.90;;;;;;5031417;28;20452;-64
2021/08/22 03:21:17;;;;;;;16.57;14.87;;;18.20;99.90;;;;;;5031181;28;20464;-65
2021/08/22 03:23:45;;;;;;;20.87;15.07;;;18.20;99.90;;;;;;5030808;28;20446;-64
2021/08/22 03:26:11;;;;;;;15.77;13.60;;;18.20;99.90;;;;;;5031139;28;20441;-64
2021/08/22 03:28:38;;;;;;;17.73;14.90;;;18.30;99.90;;;;;;5031190;28;20442;-65
2021/08/22 03:31:06;;;;;;;14.33;13.13;;;18.30;99.90;;;;;;5030948;28;20472;-64
2021/08/22 03:33:33;;;;;;;14.60;13.20;;;18.30;99.90;;;;;;5031042;28;20456;-65
2021/08/22 03:35:59;;;;;;;16.20;14.60;;;18.30;99.90;;;;;;5030979;28;20815;-65
2021/08/22 03:38:26;;;;;;;15.33;13.93;;;18.40;99.90;;;;;;5031210;28;20440;-64
2021/08/22 03:40:53;;;;;;;17.27;15.37;;;18.40;99.90;;;;;;5032702;28;20472;-64
2021/08/22 03:43:20;;;;;;;16.80;15.20;;;18.40;99.90;;;;;;5034811;28;20934;-65
2021/08/22 03:45:46;;;;;;;16.43;14.93;;;18.40;99.90;;;;;;5034816;28;20480;-64
2021/08/22 03:48:14;;;;;;;15.63;14.23;;;18.40;99.90;;;;;;5034515;28;20453;-64
2021/08/22 03:50:41;;;;;;;15.50;14.10;;;18.40;99.90;;;;;;5034725;28;20461;-65
2021/08/22 03:53:08;;;;;;;16.67;15.17;;;18.40;99.90;;;;;;5034505;28;20448;-64
2021/08/22 03:55:34;;;;;;;18.53;16.67;;;18.40;99.90;;;;;;5034575;28;20440;-64
2021/08/22 03:58:01;;;;;;;18.20;16.60;;;18.50;99.90;;;;;;5034378;28;20444;-64
2021/08/22 04:00:27;;;;;;;16.80;15.20;;;18.40;99.90;;;;;;5034228;28;20473;-65
2021/08/22 04:02:54;;;;;;;17.90;16.30;;;18.50;99.90;;;;;;5034363;28;20449;-64
2021/08/22 04:05:22;;;;;;;18.20;16.60;;;18.50;99.90;;;;;;5034634;28;20491;-64
2021/08/22 04:07:51;;;;;;;17.37;15.87;;;18.50;99.90;;;;;;5034350;28;20449;-65
2021/08/22 04:10:18;;;;;;;17.27;15.57;;;18.50;99.90;;;;;;5034032;28;20552;-65
2021/08/22 04:12:45;;;;;;;17.13;15.50;;;18.50;99.90;;;;;;5034199;28;20481;-65
2021/08/22 04:15:12;;;;;;;17.60;16.00;;;18.50;99.90;;;;;;5034321;28;20440;-64
2021/08/22 04:17:38;;;;;;;17.63;15.70;;;18.40;99.90;;;;;;5034188;28;20456;-64
2021/08/22 04:20:06;;;;;;;16.90;15.40;;;18.50;99.90;;;;;;5033976;28;20445;-65
2021/08/22 04:22:37;;;;;;;16.90;15.37;;;18.40;99.90;;;;;;5034105;28;20445;-65
2021/08/22 04:25:06;;;;;;;16.17;14.67;;;18.40;99.90;;;;;;5034089;28;20479;-64
2021/08/22 04:27:33;;;;;;;15.20;13.80;;;18.40;99.90;;;;;;5034146;28;20440;-64
2021/08/22 04:30:01;;;;;;;15.67;14.10;;;18.40;99.90;;;;;;5033841;28;20507;-64
2021/08/22 04:32:27;;;;;;;18.00;16.20;;;18.40;99.90;;;;;;5033723;28;20476;-64
2021/08/22 04:34:54;;;;;;;18.47;16.53;;;18.40;99.90;;;;;;5034014;28;20445;-64
2021/08/22 04:37:21;;;;;;;17.57;15.73;;;18.40;99.90;;;;;;5033914;28;20529;-64
2021/08/22 04:39:49;;;;;;;17.60;14.63;;;18.40;99.90;;;;;;5033730;28;20445;-64
2021/08/22 04:42:16;;;;;;;14.87;13.37;;;18.40;99.90;;;;;;5033274;28;20919;-65
2021/08/22 04:44:42;;;;;;;17.67;14.77;;;18.40;99.90;;;;;;5033794;28;21056;-64
2021/08/22 04:47:09;;;;;;;17.10;15.47;;;18.40;99.90;;;;;;5033780;28;20797;-64
2021/08/22 04:49:36;;;;;;;18.13;16.13;;;18.40;99.90;;;;;;5033651;28;20446;-65
2021/08/22 04:52:02;;;;;;;18.80;16.83;;;18.40;99.90;;;;;;5032446;28;20469;-65
2021/08/22 04:54:29;;;;;;;17.77;16.07;;;18.40;99.90;;;;;;5033548;28;20449;-63
2021/08/22 04:56:57;;;;;;;19.00;15.90;;;18.40;99.90;;;;;;5033500;28;20445;-64
2021/08/22 04:59:24;;;;;;;19.20;17.30;;;18.40;99.90;;;;;;5033609;28;20441;-65
2021/08/22 05:01:51;;;;;;;20.90;18.50;;;18.40;99.90;;;;;;5033435;28;21005;-64
2021/08/22 05:04:18;;;;;;;22.07;19.93;;;18.40;99.90;;;;;;5033048;28;20449;-64
2021/08/22 05:06:45;;;;;;;18.60;16.80;;;18.40;99.90;;;;;;5033410;28;20453;-63
2021/08/22 05:09:11;;;;;;;19.87;17.87;;;18.40;99.90;;;;;;5033426;28;20441;-63
2021/08/22 05:11:38;;;;;;;19.37;17.30;;;18.40;99.90;;;;;;5033099;28;20465;-63
2021/08/22 05:14:06;;;;;;;18.17;16.33;;;18.40;99.90;;;;;;5033423;28;20467;-63
2021/08/22 05:16:33;;;;;;;23.27;20.77;;;18.50;99.90;;;;;;5032941;28;20484;-66
2021/08/22 05:19:00;;;;;;;19.30;17.43;;;18.50;99.90;;;;;;5032987;28;20441;-65
2021/08/22 05:21:27;;;;;;;22.60;17.60;;;18.50;99.90;;;;;;5032715;28;20457;-66
2021/08/22 05:23:54;;;;;;;20.47;18.33;;;18.50;99.90;;;;;;5033088;28;20495;-65
2021/08/22 05:26:20;;;;;;;21.33;19.10;;;18.60;99.90;;;;;;5033021;28;20472;-66
2021/08/22 05:28:47;;;;;;;19.37;17.47;;;18.60;99.90;;;;;;5032667;28;20449;-64
2021/08/22 05:31:15;;;;;;;19.80;17.63;;;18.70;99.90;;;;;;5032437;28;20468;-64
2021/08/22 05:33:44;;;;;;;19.90;17.90;;;18.70;99.90;;;;;;5032812;28;20446;-63
2021/08/22 05:36:18;;;;;;;19.90;17.90;;;18.70;99.90;;;;;;5032752;28;20441;-64
2021/08/22 05:38:45;;;;;;;21.53;18.93;;;18.70;99.90;;;;;;5032806;28;20448;-64
2021/08/22 05:41:12;;;;;;;21.40;19.30;;;18.80;99.90;;;;;;5032223;28;20473;-65
2021/08/22 05:43:39;;;;;;;18.77;16.97;;;18.90;99.90;;;;;;5032253;28;20965;-65
2021/08/22 05:46:06;;;;;;;18.97;17.27;;;19.00;99.90;;;;;;5032548;28;20487;-62
2021/08/22 05:48:34;;;;;;;20.37;18.47;;;19.10;99.90;;;;;;5032343;28;20982;-62
2021/08/22 05:51:01;;;;;;;22.57;19.40;;;19.20;99.90;;;;;;5032065;28;20472;-66
2021/08/22 05:53:29;;;;;;;21.53;19.50;;;19.20;99.90;;;;;;5032199;28;20805;-65
2021/08/22 05:55:56;;;;;;;21.60;19.40;;;19.20;99.90;;;;;;5032389;28;20453;-66
2021/08/22 05:58:23;;;;;;;21.40;19.37;;;19.20;99.90;;;;;;5032127;28;20480;-65
2021/08/22 06:00:50;;;;;;;23.97;21.90;;;19.30;99.90;;;;;;5032162;28;20519;-66
2021/08/22 06:03:16;;;;;;;24.23;22.13;;;19.20;99.90;;;;;;5031666;28;20448;-65
2021/08/22 06:05:44;;;;;;;23.33;21.13;;;19.30;99.90;;;;;;5031259;28;20488;-65
2021/08/22 06:08:11;;;;;;;21.87;20.07;;;19.50;99.90;;;;;;5032157;28;20495;-66
2021/08/22 06:10:39;;;;;;;24.20;22.27;;;19.60;99.90;;;;;;5032202;28;20468;-65
2021/08/22 06:13:06;;;;;;;22.23;20.37;;;19.70;99.90;;;;;;5032032;28;20783;-65
2021/08/22 06:15:33;;;;;;;25.33;23.23;;;19.80;99.90;;;;;;5032107;28;20445;-66
2021/08/22 06:18:00;;;;;;;25.67;23.67;;;20.00;99.90;;;;;;5031789;28;20939;-66
2021/08/22 06:20:27;;;;;;;26.40;24.27;;;20.00;99.90;;;;;;5031723;28;20449;-65
2021/08/22 06:22:55;;;;;;;26.97;24.83;;;19.90;99.90;;;;;;5031714;28;20452;-65
2021/08/22 06:25:22;;;;;;;25.60;23.27;;;19.90;99.90;;;;;;5031752;28;20483;-65
2021/08/22 06:27:48;;;;;;;24.10;22.10;;;19.80;99.90;;;;;;5031909;28;20441;-65
2021/08/22 06:30:15;;;;;;;25.63;22.93;;;19.80;99.90;;;;;;5031441;28;20456;-65
2021/08/22 06:32:42;;;;;;;24.40;22.50;;;20.00;99.90;;;;;;5031582;28;20448;-65
2021/08/22 06:35:09;;;;;;;21.37;19.77;;;20.10;99.90;;;;;;5031800;28;20444;-65
2021/08/22 06:37:37;;;;;;;25.37;23.17;;;20.20;99.90;;;;;;5031742;28;20445;-66
2021/08/22 06:40:06;;;;;;;24.00;21.90;;;20.20;99.90;;;;;;5031540;28;20437;-66
2021/08/22 06:42:33;;;;;;;22.93;21.03;;;20.30;99.90;;;;;;5011586;28;20466;-65
2021/08/22 06:45:00;;;;;;;24.63;22.67;;;20.30;99.90;;;;;;5011812;28;20481;-65
2021/08/22 06:47:26;;;;;;;26.57;24.57;;;20.40;99.90;;;;;;5026176;28;20973;-65
2021/08/22 06:49:53;;;;;;;24.97;22.77;;;20.40;99.90;;;;;;5031655;28;20488;-65
2021/08/22 06:52:20;;;;;;;25.40;23.50;;;20.50;99.90;;;;;;5030800;28;20534;-65
2021/08/22 06:54:47;;;;;;;23.33;21.63;;;20.70;99.90;;;;;;5031572;28;20448;-65
2021/08/22 06:57:16;;;;;;;23.20;21.40;;;20.80;99.90;;;;;;5031462;28;20445;-65
2021/08/22 06:59:43;;;;;;;24.40;22.40;;;20.90;99.90;;;;;;5031590;28;20545;-65
2021/08/22 07:02:10;;;;;;;24.13;22.13;;;21.00;99.90;;;;;;5031130;28;20990;-65
2021/08/22 07:04:37;;;;;;;22.97;21.23;;;21.10;99.90;;;;;;5031342;28;20476;-65
2021/08/22 07:07:04;;;;;;;25.40;23.60;;;21.20;99.90;;;;;;5031383;28;20476;-66
2021/08/22 07:09:31;;;;;;;22.60;21.10;;;21.20;99.90;;;;;;5031259;28;20445;-66
2021/08/22 07:11:58;;;;;;;25.07;23.30;;;21.20;99.90;;;;;;5031097;28;20473;-66
2021/08/22 07:14:26;;;;;;;24.87;23.03;;;21.30;99.90;;;;;;5031301;28;20811;-66
2021/08/22 07:16:52;;;;;;;24.43;22.73;;;21.10;99.90;;;;;;5034662;28;20437;-66
2021/08/22 07:19:19;;;;;;;23.30;21.60;;;21.30;99.90;;;;;;5035313;28;20452;-66
2021/08/22 07:21:46;;;;;;;25.10;23.30;;;21.30;99.90;;;;;;5035054;28;20464;-66
2021/08/22 07:24:12;;;;;;;23.53;22.03;;;21.30;99.90;;;;;;5035154;28;21187;-66
2021/08/22 07:26:39;;;;;;;23.67;21.93;;;21.20;99.90;;;;;;5034968;28;20890;-66
2021/08/22 07:29:06;;;;;;;24.70;23.10;;;21.20;99.90;;;;;;5034917;28;20457;-66
2021/08/22 07:31:34;;;;;;;21.80;20.40;;;21.00;99.90;;;;;;5034968;28;20465;-66
2021/08/22 07:34:00;;;;;;;23.63;21.97;;;20.90;99.90;;;;;;5035093;28;20445;-66
2021/08/22 07:36:27;;;;;;;24.10;22.43;;;20.80;99.90;;;;;;5035092;28;20808;-66
2021/08/22 07:38:54;;;;;;;23.73;21.83;;;20.70;99.90;;;;;;5035044;28;20861;-66
2021/08/22 07:41:21;;;;;;;23.57;21.87;;;20.70;99.90;;;;;;5034286;28;20542;-65
2021/08/22 07:43:48;;;;;;;24.47;21.87;;;20.70;99.90;;;;;;5034842;28;20830;-65
2021/08/22 07:46:15;;;;;;;23.47;21.77;;;20.60;99.90;;;;;;5034938;28;20512;-65
2021/08/22 07:48:43;;;;;;;24.03;22.20;;;20.60;99.90;;;;;;5034810;28;20464;-65
2021/08/22 07:51:10;;;;;;;23.73;22.13;;;20.40;99.90;;;;;;5034974;28;20472;-66
2021/08/22 07:53:36;;;;;;;24.47;22.17;;;20.30;99.90;;;;;;5034427;28;20445;-67
2021/08/22 07:56:04;;;;;;;24.00;22.20;;;20.40;99.90;;;;;;5034971;28;20433;-65
2021/08/22 07:58:31;;;;;;;23.53;21.70;;;20.40;99.90;;;;;;5035081;28;20510;-65
2021/08/22 08:00:58;;;;;;;23.13;21.43;;;20.50;99.90;;;;;;5034741;28;20483;-65
2021/08/22 08:03:25;;;;;;;24.33;22.53;;;20.60;99.90;;;;;;5034719;28;20488;-65
2021/08/22 08:05:54;;;;;;;20.90;19.50;;;20.90;99.90;;;;;;5034794;28;20488;-65
2021/08/22 08:08:21;;;;;;;21.73;20.40;;;21.30;99.90;;;;;;5034986;28;20452;-65
2021/08/22 08:10:48;;;;;;;23.00;21.40;;;21.30;99.90;;;;;;5034752;28;20518;-65
2021/08/22 08:13:14;;;;;;;21.40;20.00;;;21.50;99.90;;;;;;5034662;28;20448;-65
2021/08/22 08:15:41;;;;;;;22.00;20.70;;;21.80;99.90;;;;;;5034403;28;20440;-65
2021/08/22 08:18:08;;;;;;;24.03;22.53;;;21.90;99.90;;;;;;5034043;28;20820;-66
2021/08/22 08:20:35;;;;;;;23.03;21.40;;;21.70;99.90;;;;;;5034453;28;20466;-65
2021/08/22 08:23:04;;;;;;;22.27;20.97;;;21.70;99.90;;;;;;5034536;28;20449;-65
2021/08/22 08:25:31;;;;;;;21.30;20.10;;;21.80;99.90;;;;;;5034426;28;20567;-65
2021/08/22 08:27:58;;;;;;;22.60;21.20;;;21.70;99.90;;;;;;5033362;28;20457;-65
2021/08/22 08:30:25;;;;;;;21.70;20.40;;;21.60;99.90;;;;;;5034113;28;20449;-65
2021/08/22 08:32:51;;;;;;;22.03;20.73;;;21.60;99.90;;;;;;5034240;28;20445;-65
2021/08/22 08:35:18;;;;;;;21.73;20.53;;;22.10;99.90;;;;;;5033729;28;20452;-65
2021/08/22 08:37:45;;;;;;;21.67;20.47;;;22.60;99.90;;;;;;5034314;28;20488;-65
2021/08/22 08:40:14;;;;;;;21.10;19.90;;;22.80;99.90;;;;;;5034471;28;20445;-65
2021/08/22 08:42:42;;;;;;;20.73;19.67;;;22.70;99.90;;;;;;5033615;28;20642;-65
2021/08/22 08:45:15;;;;;;;21.03;19.90;;;22.60;99.90;;;;;;5034102;28;20552;-65
2021/08/22 08:47:43;;;;;;;22.33;21.10;;;22.60;99.90;;;;;;5034061;28;20465;-65
2021/08/22 08:50:15;;;;;;;20.60;19.50;;;22.90;99.90;;;;;;5033672;28;20452;-64
2021/08/22 08:52:45;;;;;;;20.80;19.70;;;23.30;99.90;;;;;;5033516;28;20449;-64
2021/08/22 08:55:18;;;;;;;19.50;18.50;;;23.20;99.90;;;;;;5033774;28;20453;-65
2021/08/22 08:57:45;;;;;;;20.20;19.20;;;23.20;99.90;;;;;;5033825;28;20445;-64
2021/08/22 09:00:13;;;;;;;21.10;19.90;;;22.90;99.90;;;;;;5033620;28;20453;-63
2021/08/22 09:02:40;;;;;;;20.70;19.40;;;22.90;99.90;;;;;;5033575;28;20441;-64
2021/08/22 09:05:42;;;;;;;21.73;20.53;;;23.10;99.90;;;;;;5033514;28;20441;-64
2021/08/22 09:09:01;;;;;;;21.17;19.87;;;23.60;99.90;;;;;;5030961;28;20453;-64
2021/08/22 09:12:05;;;;;;;21.10;19.67;;;24.00;99.90;;;;;;4972234;28;20475;-66
2021/08/22 09:15:13;;;;;;;20.77;19.77;;;24.00;99.90;;;;;;4972593;28;20452;-66
2021/08/22 09:18:18;;;;;;;19.60;18.70;;;24.40;99.90;;;;;;5031458;28;20441;-66
2021/08/22 09:21:35;;;;;;;20.80;19.80;;;24.40;99.90;;;;;;5033393;28;20560;-65
2021/08/22 09:24:39;;;;;;;19.40;18.40;;;24.40;99.90;;;;;;5033372;28;20475;-66
2021/08/22 09:27:43;;;;;;;20.40;19.30;;;25.00;99.90;;;;;;5033324;28;20480;-66
2021/08/22 09:30:54;;;;;;;18.87;18.07;;;24.90;99.90;;;;;;5032965;28;20456;-66
2021/08/22 09:33:58;;;;;;;18.00;17.10;;;24.80;99.90;;;;;;5033207;28;20559;-66
2021/08/22 09:37:14;;;;;;;18.80;17.67;;;24.60;99.90;;;;;;5033018;28;20918;-65
2021/08/22 09:40:18;;;;;;;18.07;17.17;;;24.50;99.90;;;;;;5032838;28;20441;-67
2021/08/22 09:43:27;;;;;;;17.80;17.00;;;23.90;99.90;;;;;;5032452;28;20445;-65
2021/08/22 09:46:29;;;;;;;18.03;17.20;;;24.20;99.90;;;;;;5032592;28;20487;-65
2021/08/22 09:49:35;;;;;;;17.90;17.00;;;24.60;99.90;;;;;;5032498;28;20456;-65
2021/08/22 09:52:38;;;;;;;17.83;17.13;;;25.00;99.90;;;;;;4962334;28;20550;-64
2021/08/22 09:55:42;;;;;;;17.47;16.83;;;24.90;99.90;;;;;;5032516;28;20445;-66
2021/08/22 09:58:54;;;;;;;17.43;16.73;;;25.00;99.90;;;;;;5032739;28;20456;-65
2021/08/22 10:01:57;;;;;;;18.57;17.73;;;25.30;99.90;;;;;;5032289;28;20469;-66
2021/08/22 10:04:40;;;;;;;17.80;17.00;;;25.70;99.90;;;;;;5032529;28;20443;-66
2021/08/22 10:07:22;;;;;;;17.63;16.87;;;25.90;99.90;;;;;;5032111;28;20477;-66
2021/08/22 10:09:53;;;;;;;18.70;18.00;;;25.50;99.90;;;;;;5032113;28;20460;-64
2021/08/22 10:12:20;;;;;;;17.67;16.70;;;25.20;99.90;;;;;;5031926;28;20483;-64
2021/08/22 10:14:48;;;;;;;17.80;17.07;;;25.20;99.90;;;;;;5032297;28;20826;-66
2021/08/22 10:17:19;;;;;;;17.77;16.97;;;24.90;99.90;;;;;;5031886;28;20438;-65
2021/08/22 10:19:48;;;;;;;16.83;16.23;;;24.90;99.90;;;;;;5032515;28;20498;-65
2021/08/22 10:22:17;;;;;;;17.27;16.60;;;25.00;99.90;;;;;;5032015;28;20540;-66
2021/08/22 10:24:49;;;;;;;17.07;16.37;;;25.40;99.90;;;;;;5032355;28;20871;-65
2021/08/22 10:27:47;;;;;;;17.60;16.60;;;25.20;99.90;;;;;;5031555;28;20472;-65
2021/08/22 10:30:25;;;;;;;17.00;16.30;;;25.00;99.90;;;;;;5032172;28;20449;-65
2021/08/22 10:33:15;;;;;;;17.67;16.77;;;25.40;98.50;;;;;;5031926;28;20444;-66
2021/08/22 10:35:43;;;;;;;17.33;16.63;;;25.40;99.00;;;;;;5032438;28;20441;-65
2021/08/22 10:38:24;;;;;;;17.60;16.80;;;25.70;96.70;;;;;;5032293;28;20445;-65
2021/08/22 10:40:51;;;;;;;17.63;16.60;;;25.90;94.90;;;;;;5031899;28;20472;-65
2021/08/22 10:43:38;;;;;;;16.77;15.97;;;25.70;92.60;;;;;;5031811;28;20452;-66
2021/08/22 10:46:05;;;;;;;17.40;16.63;;;26.00;92.10;;;;;;5031775;28;20449;-65
2021/08/22 10:48:51;;;;;;;17.10;16.40;;;26.20;93.90;;;;;;5031586;28;20448;-66
2021/08/22 10:51:20;;;;;;;17.67;16.87;;;26.70;93.00;;;;;;5031136;28;20461;-66
2021/08/22 10:53:50;;;;;;;17.43;16.50;;;26.40;93.10;;;;;;5031302;28;20449;-66
2021/08/22 10:56:37;;;;;;;17.70;17.00;;;25.90;95.20;;;;;;5031266;28;20434;-66
2021/08/22 10:59:06;;;;;;;18.97;17.97;;;25.80;95.50;;;;;;5030554;28;20515;-66
2021/08/22 11:01:35;;;;;;;17.90;17.10;;;25.90;94.80;;;;;;5031650;28;20897;-66
2021/08/22 11:04:04;;;;;;;17.90;17.20;;;26.20;93.60;;;;;;5031565;28;21058;-66
2021/08/22 11:06:32;;;;;;;17.70;17.00;;;26.40;92.40;;;;;;5031514;28;20485;-66
2021/08/22 11:08:59;;;;;;;17.60;16.80;;;26.70;92.40;;;;;;5031553;28;20452;-66
2021/08/22 11:11:26;;;;;;;18.50;17.60;;;26.80;90.80;;;;;;5031217;28;20465;-66
2021/08/22 11:13:54;;;;;;;19.97;18.97;;;26.60;86.40;;;;;;5031370;28;20464;-66
2021/08/22 11:16:21;;;;;;;17.83;17.03;;;27.00;85.00;;;;;;5031653;28;20627;-67
2021/08/22 11:18:48;;;;;;;17.90;17.20;;;27.20;83.30;;;;;;5031463;28;20441;-66
2021/08/22 11:21:27;;;;;;;19.17;18.27;;;27.80;79.40;;;;;;5031080;28;20461;-66
2021/08/22 11:23:59;;;;;;;20.67;19.87;;;28.30;76.20;;;;;;5031252;28;20447;-66
2021/08/22 11:26:25;;;;;;;18.67;17.87;;;28.80;72.90;;;;;;5031381;28;21070;-66
2021/08/22 11:28:56;;;;;;;20.03;19.13;;;28.60;69.80;;;;;;5031209;28;20444;-66
2021/08/22 11:31:23;;;;;;;19.77;18.97;;;28.30;69.10;;;;;;5031252;28;20492;-66
2021/08/22 11:33:50;;;;;;;21.37;20.23;;;29.30;67.40;;;;;;5031473;28;20487;-66
2021/08/22 11:36:17;;;;;;;21.03;20.00;;;30.10;60.60;;;;;;5031585;28;20448;-66
2021/08/22 11:38:44;;;;;;;20.27;19.37;;;30.80;60.10;;;;;;5031466;28;20455;-66
2021/08/22 11:41:12;;;;;;;20.17;19.27;;;31.40;55.60;;;;;;5031020;28;20468;-67
2021/08/22 11:43:39;;;;;;;20.30;19.40;;;33.10;52.60;;;;;;5031149;28;20448;-66
2021/08/22 11:46:14;;;;;;;19.87;19.07;;;31.70;52.40;;;;;;5031205;28;20447;-66
2021/08/22 11:48:41;;;;;;;21.00;20.10;;;31.50;53.40;;;;;;5031415;28;20848;-66
2021/08/22 11:51:08;;;;;;;20.73;19.60;;;31.40;54.70;;;;;;5030888;28;20476;-66
2021/08/22 11:53:35;;;;;;;22.00;21.00;;;34.10;50.40;;;;;;5031082;28;20452;-67
2021/08/22 11:56:02;;;;;;;21.15;20.15;;;35.50;47.70;;;;;;5031080;28;20463;-67
2021/08/22 11:58:35;;;;;;;21.17;20.17;;;37.70;43.20;;;;;;5031160;28;20205;-67
2021/08/22 12:01:12;;;;;;;20.95;19.92;;;39.30;39.60;;;;;;5030875;28;20233;-67
2021/08/22 12:03:39;;;;;;;20.98;20.00;;;39.30;38.10;;;;;;5033960;28;20202;-67
2021/08/22 12:06:07;;;;;;;22.25;21.33;;;41.60;36.20;;;;;;5034669;28;20698;-67
2021/08/22 12:08:35;;;;;;;20.08;19.27;;;42.90;33.00;;;;;;5034593;28;20225;-67
2021/08/22 12:11:07;;;;;;;21.77;20.77;;;40.70;33.40;;;;;;5034529;28;20221;-67
2021/08/22 12:13:36;;;;;;;21.10;20.30;;;39.20;34.20;;;;;;5034501;28;20208;-66
2021/08/22 12:16:21;;;;;;;21.30;20.40;;;37.10;37.00;;;;;;5034696;28;20288;-67
2021/08/22 12:18:48;;;;;;;20.70;19.80;;;35.40;39.20;;;;;;5034794;28;20201;-67
2021/08/22 12:21:17;;;;;;;21.80;20.90;;;33.30;42.20;;;;;;5034257;28;20232;-67
2021/08/22 12:23:46;;;;;;;21.37;20.47;;;31.60;44.90;;;;;;5034280;28;20441;-67
2021/08/22 12:26:24;;;;;;;20.73;19.83;;;34.60;45.00;;;;;;5034287;28;20930;-67
2021/08/22 12:28:54;;;;;;;21.08;20.17;;;37.00;40.80;;;;;;5034425;28;20693;-67
2021/08/22 12:31:21;;;;;;;21.70;20.70;;;38.40;37.80;;;;;;5034121;28;20225;-65
2021/08/22 12:33:49;;;;;;;21.60;20.80;;;37.90;36.90;;;;;;5034263;28;20553;-66
2021/08/22 12:36:18;;;;;;;22.23;21.33;;;37.60;38.60;;;;;;5034145;28;20209;-65
2021/08/22 12:38:48;;;;;;;20.92;20.02;;;39.70;36.20;;;;;;5034342;28;20201;-65
2021/08/22 12:41:32;;;;;;;20.95;19.95;;;36.50;37.00;;;;;;5033610;28;20730;-67
2021/08/22 12:44:02;;;;;;;22.50;21.40;;;34.10;40.80;;;;;;5034083;28;20205;-67
2021/08/22 12:46:30;;;;;;;20.40;19.50;;;33.60;43.10;;;;;;5033891;28;20868;-67
2021/08/22 12:48:58;;;;;;;19.95;19.10;;;35.80;41.20;;;;;;5034039;28;20208;-67